sensor_id;sensor_type;location;lat;lon;timestamp;pressure;altitude;pressure_sealevel;temperature;humidity
12213;BME280;6169;44.158;22.788;2023-10-19T00:04:30;101087.94;;;10.09;40.70
12213;BME280;6169;44.158;22.788;2023-10-19T00:09:33;101076.09;;;10.04;41.13
12213;BME280;6169;44.158;22.788;2023-10-19T00:14:41;101077.03;;;9.91;40.96
12213;BME280;6169;44.158;22.788;2023-10-19T00:19:43;101071.88;;;9.83;40.96
12213;BME280;6169;44.158;22.788;2023-10-19T00:24:59;101070.78;;;9.65;42.21
12213;BME280;6169;44.158;22.788;2023-10-19T00:30:05;101080.81;;;9.65;42.14
12213;BME280;6169;44.158;22.788;2023-10-19T00:35:08;101083.13;;;9.61;42.46
12213;BME280;6169;44.158;22.788;2023-10-19T00:40:27;101070.84;;;9.59;41.45
12213;BME280;6169;44.158;22.788;2023-10-19T00:45:39;101082.22;;;9.35;42.72
12213;BME280;6169;44.158;22.788;2023-10-19T00:50:42;101072.31;;;9.23;41.80
12213;BME280;6169;44.158;22.788;2023-10-19T00:55:48;101076.88;;;9.29;42.54
12213;BME280;6169;44.158;22.788;2023-10-19T01:00:54;101072.50;;;9.60;41.59
12213;BME280;6169;44.158;22.788;2023-10-19T01:05:56;101068.50;;;9.62;41.97
12213;BME280;6169;44.158;22.788;2023-10-19T01:10:59;101069.06;;;9.71;41.87
12213;BME280;6169;44.158;22.788;2023-10-19T01:16:12;101059.69;;;9.35;42.67
12213;BME280;6169;44.158;22.788;2023-10-19T01:21:16;101050.47;;;9.43;41.54
12213;BME280;6169;44.158;22.788;2023-10-19T01:26:23;101050.69;;;9.41;42.56
12213;BME280;6169;44.158;22.788;2023-10-19T01:31:28;101052.72;;;9.52;41.62
12213;BME280;6169;44.158;22.788;2023-10-19T01:36:39;101039.78;;;9.48;42.31
12213;BME280;6169;44.158;22.788;2023-10-19T01:41:45;101046.25;;;9.47;41.74
12213;BME280;6169;44.158;22.788;2023-10-19T01:46:51;101039.50;;;9.31;41.98
12213;BME280;6169;44.158;22.788;2023-10-19T01:51:54;101032.84;;;9.27;43.04
12213;BME280;6169;44.158;22.788;2023-10-19T01:56:58;101043.94;;;9.19;42.84
12213;BME280;6169;44.158;22.788;2023-10-19T02:02:00;101040.25;;;9.13;42.42
12213;BME280;6169;44.158;22.788;2023-10-19T02:07:03;101046.16;;;9.03;42.55
12213;BME280;6169;44.158;22.788;2023-10-19T02:12:14;101036.22;;;9.22;42.96
12213;BME280;6169;44.158;22.788;2023-10-19T02:17:19;101028.53;;;9.44;42.66
12213;BME280;6169;44.158;22.788;2023-10-19T02:22:21;101026.16;;;9.29;42.47
12213;BME280;6169;44.158;22.788;2023-10-19T02:27:26;101024.41;;;9.42;42.19
12213;BME280;6169;44.158;22.788;2023-10-19T02:32:29;101010.31;;;9.51;42.06
12213;BME280;6169;44.158;22.788;2023-10-19T02:37:33;101007.50;;;9.40;43.01
12213;BME280;6169;44.158;22.788;2023-10-19T02:42:37;101022.00;;;9.59;42.93
12213;BME280;6169;44.158;22.788;2023-10-19T02:47:41;101027.06;;;9.73;43.02
12213;BME280;6169;44.158;22.788;2023-10-19T02:52:44;101021.94;;;9.84;42.30
12213;BME280;6169;44.158;22.788;2023-10-19T02:57:48;100999.78;;;10.05;42.17
12213;BME280;6169;44.158;22.788;2023-10-19T03:02:51;101015.88;;;9.63;43.24
12213;BME280;6169;44.158;22.788;2023-10-19T03:07:53;100985.56;;;9.66;43.81
12213;BME280;6169;44.158;22.788;2023-10-19T03:12:57;100989.28;;;10.09;42.79
12213;BME280;6169;44.158;22.788;2023-10-19T03:18:00;101010.13;;;10.15;42.86
12213;BME280;6169;44.158;22.788;2023-10-19T03:23:02;101008.84;;;10.17;42.84
12213;BME280;6169;44.158;22.788;2023-10-19T03:28:07;100993.38;;;10.18;42.62
12213;BME280;6169;44.158;22.788;2023-10-19T03:33:12;101002.72;;;9.85;43.30
12213;BME280;6169;44.158;22.788;2023-10-19T03:38:14;101008.09;;;9.67;44.55
12213;BME280;6169;44.158;22.788;2023-10-19T03:43:19;100988.00;;;10.11;43.95
12213;BME280;6169;44.158;22.788;2023-10-19T03:48:22;100968.44;;;10.39;42.73
12213;BME280;6169;44.158;22.788;2023-10-19T03:53:27;100961.72;;;10.42;42.50
12213;BME280;6169;44.158;22.788;2023-10-19T03:58:32;100958.38;;;10.40;43.18
12213;BME280;6169;44.158;22.788;2023-10-19T04:03:35;100956.22;;;10.49;42.95
12213;BME280;6169;44.158;22.788;2023-10-19T04:08:37;100958.34;;;10.58;42.78
12213;BME280;6169;44.158;22.788;2023-10-19T04:13:41;100952.44;;;10.31;43.92
12213;BME280;6169;44.158;22.788;2023-10-19T04:18:46;100947.38;;;10.65;42.91
12213;BME280;6169;44.158;22.788;2023-10-19T04:23:49;100948.63;;;10.69;42.96
12213;BME280;6169;44.158;22.788;2023-10-19T04:28:53;100950.97;;;10.47;43.26
12213;BME280;6169;44.158;22.788;2023-10-19T04:33:55;100951.94;;;10.71;42.66
12213;BME280;6169;44.158;22.788;2023-10-19T04:38:58;100947.03;;;10.61;43.23
12213;BME280;6169;44.158;22.788;2023-10-19T04:44:02;100949.28;;;10.64;42.79
12213;BME280;6169;44.158;22.788;2023-10-19T04:49:08;100948.63;;;10.69;43.17
12213;BME280;6169;44.158;22.788;2023-10-19T04:54:11;100948.81;;;10.67;43.12
12213;BME280;6169;44.158;22.788;2023-10-19T04:59:16;100961.44;;;10.80;43.77
12213;BME280;6169;44.158;22.788;2023-10-19T05:04:18;100965.03;;;11.04;42.88
12213;BME280;6169;44.158;22.788;2023-10-19T05:09:21;100968.50;;;11.23;42.02
12213;BME280;6169;44.158;22.788;2023-10-19T05:14:25;100962.81;;;11.36;41.77
12213;BME280;6169;44.158;22.788;2023-10-19T05:19:28;100969.22;;;11.30;42.19
12213;BME280;6169;44.158;22.788;2023-10-19T05:24:31;100967.81;;;11.40;42.17
12213;BME280;6169;44.158;22.788;2023-10-19T05:29:35;100957.13;;;11.50;41.55
12213;BME280;6169;44.158;22.788;2023-10-19T05:34:38;100960.81;;;11.67;41.71
12213;BME280;6169;44.158;22.788;2023-10-19T05:39:40;100957.13;;;11.50;42.13
12213;BME280;6169;44.158;22.788;2023-10-19T05:44:44;100964.03;;;11.88;41.28
12213;BME280;6169;44.158;22.788;2023-10-19T05:49:47;100961.72;;;12.08;41.26
12213;BME280;6169;44.158;22.788;2023-10-19T05:54:49;100970.94;;;12.19;41.25
12213;BME280;6169;44.158;22.788;2023-10-19T05:59:53;100966.91;;;12.21;41.45
12213;BME280;6169;44.158;22.788;2023-10-19T06:04:55;100974.03;;;12.51;41.10
12213;BME280;6169;44.158;22.788;2023-10-19T06:09:58;100980.28;;;12.23;42.99
12213;BME280;6169;44.158;22.788;2023-10-19T06:15:07;100990.63;;;12.21;43.07
12213;BME280;6169;44.158;22.788;2023-10-19T06:20:12;101003.00;;;12.40;43.81
12213;BME280;6169;44.158;22.788;2023-10-19T06:25:24;101011.78;;;12.31;44.31
12213;BME280;6169;44.158;22.788;2023-10-19T06:30:28;101017.44;;;12.53;43.79
12213;BME280;6169;44.158;22.788;2023-10-19T06:35:32;101021.25;;;12.40;44.24
12213;BME280;6169;44.158;22.788;2023-10-19T06:40:35;101014.53;;;12.59;44.20
12213;BME280;6169;44.158;22.788;2023-10-19T06:45:39;101012.19;;;12.51;44.14
12213;BME280;6169;44.158;22.788;2023-10-19T06:50:42;101006.16;;;12.89;43.57
12213;BME280;6169;44.158;22.788;2023-10-19T06:55:46;101001.81;;;13.22;42.48
12213;BME280;6169;44.158;22.788;2023-10-19T07:00:50;101025.56;;;13.22;42.27
12213;BME280;6169;44.158;22.788;2023-10-19T07:06:00;101011.75;;;13.11;42.18
12213;BME280;6169;44.158;22.788;2023-10-19T07:11:03;101010.94;;;13.28;41.39
12213;BME280;6169;44.158;22.788;2023-10-19T07:16:11;101014.31;;;13.52;41.56
12213;BME280;6169;44.158;22.788;2023-10-19T07:21:13;101016.22;;;13.68;41.20
12213;BME280;6169;44.158;22.788;2023-10-19T07:26:18;101012.00;;;13.77;41.02
12213;BME280;6169;44.158;22.788;2023-10-19T07:31:23;101004.13;;;13.64;41.10
12213;BME280;6169;44.158;22.788;2023-10-19T07:36:28;101005.63;;;14.11;40.02
12213;BME280;6169;44.158;22.788;2023-10-19T07:41:32;101014.16;;;14.36;39.83
12213;BME280;6169;44.158;22.788;2023-10-19T07:46:38;101004.53;;;14.56;39.28
12213;BME280;6169;44.158;22.788;2023-10-19T07:51:45;100991.47;;;14.85;39.15
12213;BME280;6169;44.158;22.788;2023-10-19T07:56:47;100989.81;;;14.13;40.34
12213;BME280;6169;44.158;22.788;2023-10-19T08:01:52;100987.19;;;14.23;41.49
12213;BME280;6169;44.158;22.788;2023-10-19T08:06:55;100984.94;;;14.64;41.42
12213;BME280;6169;44.158;22.788;2023-10-19T08:11:58;100992.84;;;14.38;41.00
12213;BME280;6169;44.158;22.788;2023-10-19T08:17:02;100972.06;;;14.37;41.85
12213;BME280;6169;44.158;22.788;2023-10-19T08:22:05;101001.06;;;14.16;41.78
12213;BME280;6169;44.158;22.788;2023-10-19T08:27:08;100986.09;;;14.68;40.44
12213;BME280;6169;44.158;22.788;2023-10-19T08:32:13;100989.31;;;14.16;42.09
12213;BME280;6169;44.158;22.788;2023-10-19T08:37:16;101000.69;;;14.08;41.33
12213;BME280;6169;44.158;22.788;2023-10-19T08:42:20;100996.78;;;14.25;41.10
12213;BME280;6169;44.158;22.788;2023-10-19T08:47:24;100981.91;;;14.38;40.93
12213;BME280;6169;44.158;22.788;2023-10-19T08:52:27;100969.75;;;14.51;40.24
12213;BME280;6169;44.158;22.788;2023-10-19T08:57:30;100963.38;;;14.45;40.62
12213;BME280;6169;44.158;22.788;2023-10-19T09:02:34;100966.13;;;14.45;40.76
12213;BME280;6169;44.158;22.788;2023-10-19T09:07:37;100958.66;;;14.63;41.35
12213;BME280;6169;44.158;22.788;2023-10-19T09:12:42;100959.06;;;14.49;40.43
12213;BME280;6169;44.158;22.788;2023-10-19T09:17:46;100948.88;;;14.67;40.57
12213;BME280;6169;44.158;22.788;2023-10-19T09:22:50;100937.50;;;15.12;39.88
12213;BME280;6169;44.158;22.788;2023-10-19T09:27:53;100934.63;;;15.29;40.07
12213;BME280;6169;44.158;22.788;2023-10-19T09:32:58;100926.59;;;15.55;39.37
12213;BME280;6169;44.158;22.788;2023-10-19T09:38:01;100929.13;;;15.62;38.79
12213;BME280;6169;44.158;22.788;2023-10-19T09:43:12;100923.06;;;16.12;37.89
12213;BME280;6169;44.158;22.788;2023-10-19T09:48:19;100920.09;;;16.34;36.35
12213;BME280;6169;44.158;22.788;2023-10-19T09:53:23;100895.47;;;16.49;36.05
12213;BME280;6169;44.158;22.788;2023-10-19T09:58:31;100900.72;;;17.12;34.68
12213;BME280;6169;44.158;22.788;2023-10-19T10:03:48;100889.75;;;17.28;34.14
12213;BME280;6169;44.158;22.788;2023-10-19T10:08:52;100889.16;;;17.15;34.18
12213;BME280;6169;44.158;22.788;2023-10-19T10:13:55;100886.16;;;17.12;34.18
12213;BME280;6169;44.158;22.788;2023-10-19T10:19:00;100879.59;;;17.08;34.38
12213;BME280;6169;44.158;22.788;2023-10-19T10:24:04;100871.06;;;16.84;35.22
12213;BME280;6169;44.158;22.788;2023-10-19T10:29:11;100852.38;;;16.40;35.29
12213;BME280;6169;44.158;22.788;2023-10-19T10:34:43;100846.06;;;17.11;34.34
12213;BME280;6169;44.158;22.788;2023-10-19T10:39:46;100839.50;;;16.71;35.50
12213;BME280;6169;44.158;22.788;2023-10-19T10:44:49;100827.38;;;17.23;34.44
12213;BME280;6169;44.158;22.788;2023-10-19T10:50:00;100798.66;;;17.65;34.44
12213;BME280;6169;44.158;22.788;2023-10-19T10:55:07;100794.50;;;17.68;33.85
12213;BME280;6169;44.158;22.788;2023-10-19T11:00:12;100787.63;;;17.75;33.70
12213;BME280;6169;44.158;22.788;2023-10-19T11:05:21;100766.72;;;18.53;33.22
12213;BME280;6169;44.158;22.788;2023-10-19T11:10:27;100760.53;;;18.71;32.30
12213;BME280;6169;44.158;22.788;2023-10-19T11:15:29;100750.66;;;18.94;32.90
12213;BME280;6169;44.158;22.788;2023-10-19T11:20:34;100740.38;;;19.00;32.33
12213;BME280;6169;44.158;22.788;2023-10-19T11:25:36;100720.03;;;19.63;31.19
12213;BME280;6169;44.158;22.788;2023-10-19T11:30:39;100707.38;;;19.38;31.19
12213;BME280;6169;44.158;22.788;2023-10-19T11:35:43;100701.28;;;19.41;31.43
12213;BME280;6169;44.158;22.788;2023-10-19T11:40:46;100697.50;;;20.45;30.78
12213;BME280;6169;44.158;22.788;2023-10-19T11:45:48;100674.13;;;20.57;29.87
12213;BME280;6169;44.158;22.788;2023-10-19T11:50:52;100685.63;;;20.45;30.01
12213;BME280;6169;44.158;22.788;2023-10-19T11:55:55;100683.13;;;21.04;29.31
12213;BME280;6169;44.158;22.788;2023-10-19T12:00:58;100661.28;;;21.30;29.12
12213;BME280;6169;44.158;22.788;2023-10-19T12:06:02;100662.28;;;21.84;28.81
12213;BME280;6169;44.158;22.788;2023-10-19T12:11:07;100675.59;;;21.82;28.39
12213;BME280;6169;44.158;22.788;2023-10-19T12:16:16;100664.66;;;21.41;29.06
12213;BME280;6169;44.158;22.788;2023-10-19T12:21:20;100645.34;;;21.86;29.09
12213;BME280;6169;44.158;22.788;2023-10-19T12:26:28;100644.31;;;21.73;28.82
12213;BME280;6169;44.158;22.788;2023-10-19T12:31:31;100639.56;;;21.96;27.98
12213;BME280;6169;44.158;22.788;2023-10-19T12:36:36;100630.75;;;21.94;28.00
12213;BME280;6169;44.158;22.788;2023-10-19T12:41:38;100619.81;;;21.66;28.61
12213;BME280;6169;44.158;22.788;2023-10-19T12:46:41;100628.31;;;21.92;28.15
12213;BME280;6169;44.158;22.788;2023-10-19T12:51:45;100621.91;;;21.83;28.18
12213;BME280;6169;44.158;22.788;2023-10-19T12:56:48;100596.38;;;22.40;28.30
12213;BME280;6169;44.158;22.788;2023-10-19T13:01:53;100597.28;;;22.04;28.19
12213;BME280;6169;44.158;22.788;2023-10-19T13:07:00;100594.88;;;22.42;28.51
12213;BME280;6169;44.158;22.788;2023-10-19T13:12:04;100577.34;;;22.56;27.46
12213;BME280;6169;44.158;22.788;2023-10-19T13:17:08;100567.28;;;22.60;27.68
12213;BME280;6169;44.158;22.788;2023-10-19T13:22:12;100560.53;;;22.43;27.47
12213;BME280;6169;44.158;22.788;2023-10-19T13:27:15;100555.31;;;22.11;28.24
12213;BME280;6169;44.158;22.788;2023-10-19T13:32:18;100531.28;;;21.44;29.12
12213;BME280;6169;44.158;22.788;2023-10-19T13:37:22;100539.41;;;21.40;29.43
12213;BME280;6169;44.158;22.788;2023-10-19T13:42:25;100524.28;;;21.01;30.26
12213;BME280;6169;44.158;22.788;2023-10-19T13:47:28;100546.56;;;21.64;29.89
12213;BME280;6169;44.158;22.788;2023-10-19T13:52:36;100527.06;;;22.31;29.11
12213;BME280;6169;44.158;22.788;2023-10-19T13:57:38;100515.31;;;22.17;28.38
12213;BME280;6169;44.158;22.788;2023-10-19T14:02:40;100514.63;;;21.80;29.00
12213;BME280;6169;44.158;22.788;2023-10-19T14:07:44;100512.13;;;21.47;29.07
12213;BME280;6169;44.158;22.788;2023-10-19T14:12:48;100497.44;;;20.79;29.72
12213;BME280;6169;44.158;22.788;2023-10-19T14:17:51;100493.56;;;20.66;30.29
12213;BME280;6169;44.158;22.788;2023-10-19T14:22:55;100498.72;;;20.45;30.67
12213;BME280;6169;44.158;22.788;2023-10-19T14:27:58;100485.75;;;20.32;31.14
12213;BME280;6169;44.158;22.788;2023-10-19T14:33:01;100453.81;;;19.98;32.01
12213;BME280;6169;44.158;22.788;2023-10-19T14:38:06;100492.53;;;19.79;32.60
12213;BME280;6169;44.158;22.788;2023-10-19T14:43:10;100474.97;;;20.03;32.73
12213;BME280;6169;44.158;22.788;2023-10-19T14:48:13;100457.88;;;20.56;31.93
12213;BME280;6169;44.158;22.788;2023-10-19T14:53:17;100465.69;;;19.99;33.23
12213;BME280;6169;44.158;22.788;2023-10-19T14:58:20;100454.22;;;19.64;33.59
12213;BME280;6169;44.158;22.788;2023-10-19T15:03:22;100441.06;;;19.42;34.17
12213;BME280;6169;44.158;22.788;2023-10-19T15:08:27;100419.38;;;19.22;34.64
12213;BME280;6169;44.158;22.788;2023-10-19T15:13:32;100388.13;;;19.12;33.75
12213;BME280;6169;44.158;22.788;2023-10-19T15:18:35;100374.81;;;19.01;34.49
12213;BME280;6169;44.158;22.788;2023-10-19T15:23:39;100430.75;;;18.63;34.81
12213;BME280;6169;44.158;22.788;2023-10-19T15:28:42;100439.03;;;18.82;34.71
12213;BME280;6169;44.158;22.788;2023-10-19T15:33:45;100465.56;;;18.54;35.75
12213;BME280;6169;44.158;22.788;2023-10-19T15:38:49;100456.84;;;18.66;35.11
12213;BME280;6169;44.158;22.788;2023-10-19T15:43:52;100439.88;;;18.59;35.19
12213;BME280;6169;44.158;22.788;2023-10-19T15:48:55;100433.88;;;18.76;35.31
12213;BME280;6169;44.158;22.788;2023-10-19T15:53:59;100445.94;;;18.18;36.89
12213;BME280;6169;44.158;22.788;2023-10-19T15:59:03;100450.38;;;17.90;37.81
12213;BME280;6169;44.158;22.788;2023-10-19T16:04:06;100445.34;;;17.73;37.95
12213;BME280;6169;44.158;22.788;2023-10-19T16:09:10;100443.09;;;17.51;37.79
12213;BME280;6169;44.158;22.788;2023-10-19T16:14:12;100451.59;;;17.49;38.22
12213;BME280;6169;44.158;22.788;2023-10-19T16:19:16;100459.63;;;17.46;37.91
12213;BME280;6169;44.158;22.788;2023-10-19T16:24:19;100451.06;;;17.13;38.68
12213;BME280;6169;44.158;22.788;2023-10-19T16:29:22;100444.13;;;16.86;38.77
12213;BME280;6169;44.158;22.788;2023-10-19T16:34:26;100456.06;;;16.66;39.27
12213;BME280;6169;44.158;22.788;2023-10-19T16:39:31;100464.94;;;16.53;39.35
12213;BME280;6169;44.158;22.788;2023-10-19T16:44:33;100448.81;;;16.41;39.24
12213;BME280;6169;44.158;22.788;2023-10-19T16:49:36;100457.34;;;16.24;39.26
12213;BME280;6169;44.158;22.788;2023-10-19T16:54:40;100464.78;;;16.19;39.43
12213;BME280;6169;44.158;22.788;2023-10-19T16:59:42;100478.50;;;16.19;38.42
12213;BME280;6169;44.158;22.788;2023-10-19T17:04:48;100483.66;;;16.25;38.15
12213;BME280;6169;44.158;22.788;2023-10-19T17:09:52;100464.75;;;16.24;38.30
12213;BME280;6169;44.158;22.788;2023-10-19T17:14:54;100490.84;;;16.16;37.81
12213;BME280;6169;44.158;22.788;2023-10-19T17:19:57;100484.88;;;15.99;38.57
12213;BME280;6169;44.158;22.788;2023-10-19T17:25:01;100483.50;;;15.96;38.25
12213;BME280;6169;44.158;22.788;2023-10-19T17:30:04;100472.78;;;16.05;38.50
12213;BME280;6169;44.158;22.788;2023-10-19T17:35:08;100493.66;;;15.96;39.02
12213;BME280;6169;44.158;22.788;2023-10-19T17:40:12;100481.25;;;16.09;38.88
12213;BME280;6169;44.158;22.788;2023-10-19T17:45:14;100479.97;;;15.80;39.28
12213;BME280;6169;44.158;22.788;2023-10-19T17:50:17;100492.88;;;15.54;39.72
12213;BME280;6169;44.158;22.788;2023-10-19T17:55:21;100489.31;;;15.38;40.63
12213;BME280;6169;44.158;22.788;2023-10-19T18:00:24;100493.16;;;15.27;40.51
12213;BME280;6169;44.158;22.788;2023-10-19T18:05:26;100504.91;;;15.18;40.50
12213;BME280;6169;44.158;22.788;2023-10-19T18:10:33;100496.16;;;15.21;40.83
12213;BME280;6169;44.158;22.788;2023-10-19T18:15:37;100499.97;;;15.09;40.87
12213;BME280;6169;44.158;22.788;2023-10-19T18:20:39;100501.06;;;15.08;41.14
12213;BME280;6169;44.158;22.788;2023-10-19T18:25:43;100494.75;;;15.13;40.68
12213;BME280;6169;44.158;22.788;2023-10-19T18:30:54;100499.19;;;15.19;40.70
12213;BME280;6169;44.158;22.788;2023-10-19T18:35:58;100509.03;;;15.25;41.21
12213;BME280;6169;44.158;22.788;2023-10-19T18:41:04;100504.38;;;15.21;40.84
12213;BME280;6169;44.158;22.788;2023-10-19T18:46:07;100513.63;;;14.89;41.50
12213;BME280;6169;44.158;22.788;2023-10-19T18:51:09;100469.69;;;14.38;41.41
12213;BME280;6169;44.158;22.788;2023-10-19T18:56:13;100518.78;;;14.75;41.44
12213;BME280;6169;44.158;22.788;2023-10-19T19:01:16;100512.22;;;14.71;41.46
12213;BME280;6169;44.158;22.788;2023-10-19T19:06:18;100505.13;;;14.75;41.22
12213;BME280;6169;44.158;22.788;2023-10-19T19:11:22;100510.22;;;14.61;41.83
12213;BME280;6169;44.158;22.788;2023-10-19T19:16:25;100505.00;;;14.49;42.02
12213;BME280;6169;44.158;22.788;2023-10-19T19:21:27;100497.97;;;14.11;42.86
12213;BME280;6169;44.158;22.788;2023-10-19T19:26:31;100507.69;;;14.39;42.19
12213;BME280;6169;44.158;22.788;2023-10-19T19:31:34;100492.28;;;14.23;42.46
12213;BME280;6169;44.158;22.788;2023-10-19T19:36:36;100485.28;;;14.37;42.04
12213;BME280;6169;44.158;22.788;2023-10-19T19:41:40;100489.16;;;14.57;42.28
12213;BME280;6169;44.158;22.788;2023-10-19T19:46:42;100474.53;;;14.20;42.11
12213;BME280;6169;44.158;22.788;2023-10-19T19:51:45;100474.84;;;14.29;42.08
12213;BME280;6169;44.158;22.788;2023-10-19T19:56:49;100464.38;;;14.11;42.85
12213;BME280;6169;44.158;22.788;2023-10-19T20:01:51;100469.25;;;14.09;42.76
12213;BME280;6169;44.158;22.788;2023-10-19T20:06:54;100468.63;;;13.91;43.20
12213;BME280;6169;44.158;22.788;2023-10-19T20:11:58;100455.53;;;13.93;43.41
12213;BME280;6169;44.158;22.788;2023-10-19T20:17:00;100457.00;;;14.16;43.37
12213;BME280;6169;44.158;22.788;2023-10-19T20:22:02;100450.44;;;14.12;43.29
12213;BME280;6169;44.158;22.788;2023-10-19T20:27:07;100454.03;;;14.18;43.40
12213;BME280;6169;44.158;22.788;2023-10-19T20:32:10;100458.34;;;14.09;43.20
12213;BME280;6169;44.158;22.788;2023-10-19T20:37:14;100457.25;;;14.10;43.29
12213;BME280;6169;44.158;22.788;2023-10-19T20:42:18;100447.41;;;14.03;43.20
12213;BME280;6169;44.158;22.788;2023-10-19T20:47:20;100448.09;;;13.78;44.20
12213;BME280;6169;44.158;22.788;2023-10-19T20:52:23;100438.25;;;13.83;44.29
12213;BME280;6169;44.158;22.788;2023-10-19T20:57:27;100439.91;;;13.84;43.46
12213;BME280;6169;44.158;22.788;2023-10-19T21:02:29;100429.81;;;13.84;43.91
12213;BME280;6169;44.158;22.788;2023-10-19T21:07:32;100432.00;;;13.87;43.99
12213;BME280;6169;44.158;22.788;2023-10-19T21:12:36;100444.41;;;14.10;43.70
12213;BME280;6169;44.158;22.788;2023-10-19T21:17:40;100424.03;;;13.80;43.68
12213;BME280;6169;44.158;22.788;2023-10-19T21:22:44;100415.31;;;13.84;43.56
12213;BME280;6169;44.158;22.788;2023-10-19T21:27:49;100426.41;;;13.72;43.86
12213;BME280;6169;44.158;22.788;2023-10-19T21:32:51;100425.38;;;13.78;43.88
12213;BME280;6169;44.158;22.788;2023-10-19T21:37:53;100411.06;;;13.60;44.46
12213;BME280;6169;44.158;22.788;2023-10-19T21:42:57;100410.47;;;13.96;44.29
12213;BME280;6169;44.158;22.788;2023-10-19T21:48:00;100411.03;;;14.03;44.09
12213;BME280;6169;44.158;22.788;2023-10-19T21:53:03;100407.75;;;14.01;44.21
12213;BME280;6169;44.158;22.788;2023-10-19T21:58:07;100413.00;;;14.13;44.17
12213;BME280;6169;44.158;22.788;2023-10-19T22:03:09;100405.31;;;14.04;44.34
12213;BME280;6169;44.158;22.788;2023-10-19T22:08:12;100399.06;;;14.19;43.97
12213;BME280;6169;44.158;22.788;2023-10-19T22:13:16;100395.97;;;14.00;44.50
12213;BME280;6169;44.158;22.788;2023-10-19T22:18:18;100389.38;;;13.91;44.18
12213;BME280;6169;44.158;22.788;2023-10-19T22:23:21;100398.91;;;13.78;45.51
12213;BME280;6169;44.158;22.788;2023-10-19T22:28:25;100387.16;;;13.83;44.97
12213;BME280;6169;44.158;22.788;2023-10-19T22:33:28;100386.09;;;13.84;45.01
12213;BME280;6169;44.158;22.788;2023-10-19T22:38:30;100381.47;;;13.90;44.87
12213;BME280;6169;44.158;22.788;2023-10-19T22:43:37;100386.44;;;13.98;44.52
12213;BME280;6169;44.158;22.788;2023-10-19T22:48:39;100369.19;;;13.97;44.46
12213;BME280;6169;44.158;22.788;2023-10-19T22:53:42;100375.69;;;13.81;44.62
12213;BME280;6169;44.158;22.788;2023-10-19T22:58:46;100365.44;;;13.61;45.90
12213;BME280;6169;44.158;22.788;2023-10-19T23:03:48;100363.59;;;13.72;45.15
12213;BME280;6169;44.158;22.788;2023-10-19T23:08:51;100364.63;;;13.60;45.08
12213;BME280;6169;44.158;22.788;2023-10-19T23:13:56;100364.84;;;13.49;45.17
12213;BME280;6169;44.158;22.788;2023-10-19T23:19:00;100353.63;;;13.45;45.53
12213;BME280;6169;44.158;22.788;2023-10-19T23:24:03;100352.78;;;13.40;44.91
12213;BME280;6169;44.158;22.788;2023-10-19T23:29:08;100351.44;;;13.42;45.34
12213;BME280;6169;44.158;22.788;2023-10-19T23:34:14;100362.78;;;13.24;46.08
12213;BME280;6169;44.158;22.788;2023-10-19T23:39:16;100356.38;;;13.45;45.63
12213;BME280;6169;44.158;22.788;2023-10-19T23:44:29;100351.84;;;13.24;45.25
12213;BME280;6169;44.158;22.788;2023-10-19T23:49:33;100336.13;;;12.94;46.37
12213;BME280;6169;44.158;22.788;2023-10-19T23:54:36;100332.22;;;13.27;45.86
12213;BME280;6169;44.158;22.788;2023-10-19T23:59:40;100316.00;;;13.10;45.70
